createdAt,value
2018-11-03T00:02:19.459Z,95.10
2018-11-03T00:06:22.773Z,95.20
2018-11-03T00:10:26.123Z,95.00
2018-11-03T00:14:29.448Z,94.90
2018-11-03T00:18:32.808Z,96.00
2018-11-03T00:22:36.220Z,96.30
2018-11-03T00:26:39.564Z,96.10
2018-11-03T00:30:42.924Z,95.80
2018-11-03T00:34:46.286Z,95.20
2018-11-03T00:38:49.650Z,95.00
2018-11-03T00:42:53.058Z,95.00
2018-11-03T00:46:56.354Z,95.00
2018-11-03T00:50:59.700Z,94.90
2018-11-03T00:55:03.032Z,95.00
2018-11-03T00:59:06.399Z,96.10
2018-11-03T01:03:09.726Z,95.60
2018-11-03T01:07:13.090Z,95.60
2018-11-03T01:11:16.459Z,95.10
2018-11-03T01:15:19.790Z,95.00
2018-11-03T01:19:23.139Z,95.20
2018-11-03T01:23:26.517Z,95.40
2018-11-03T01:27:29.847Z,95.00
2018-11-03T01:31:33.197Z,95.10
2018-11-03T01:35:36.990Z,94.80
2018-11-03T01:39:40.343Z,95.00
2018-11-03T01:43:43.753Z,94.90
2018-11-03T01:47:47.092Z,94.80
2018-11-03T01:51:50.438Z,94.80
2018-11-03T01:55:53.766Z,94.70
2018-11-03T01:59:57.098Z,94.70
2018-11-03T02:04:00.451Z,94.70
2018-11-03T02:08:03.804Z,94.80
2018-11-03T02:12:07.167Z,94.90
2018-11-03T02:16:10.487Z,94.90
2018-11-03T02:20:13.830Z,95.00
2018-11-03T02:24:17.187Z,94.80
2018-11-03T02:28:20.528Z,94.90
2018-11-03T02:32:23.872Z,94.90
2018-11-03T02:36:27.220Z,94.90
2018-11-03T02:40:30.580Z,94.90
2018-11-03T02:44:33.936Z,95.00
2018-11-03T02:48:37.275Z,95.00
2018-11-03T02:52:40.927Z,95.10
2018-11-03T02:56:44.253Z,94.80
2018-11-03T03:00:47.672Z,94.80
2018-11-03T03:04:51.028Z,94.80
2018-11-03T03:08:54.412Z,95.00
2018-11-03T03:12:57.757Z,95.00
2018-11-03T03:17:01.097Z,94.80
2018-11-03T03:21:05.106Z,94.80
2018-11-03T03:25:09.500Z,94.90
2018-11-03T03:29:12.951Z,94.80
2018-11-03T03:33:16.218Z,94.90
2018-11-03T03:37:19.728Z,95.10
2018-11-03T03:41:23.086Z,94.80
2018-11-03T03:45:26.431Z,94.90
2018-11-03T03:49:29.776Z,94.90
2018-11-03T03:53:33.120Z,94.80
2018-11-03T03:57:36.516Z,94.90
2018-11-03T04:01:39.849Z,94.60
2018-11-03T04:05:43.211Z,94.80
2018-11-03T04:09:46.553Z,94.60
2018-11-03T04:13:50.262Z,94.80
2018-11-03T04:17:53.628Z,94.70
2018-11-03T04:21:56.956Z,94.80
2018-11-03T04:26:00.304Z,94.90
2018-11-03T04:30:05.244Z,94.70
2018-11-03T04:34:08.596Z,95.00
2018-11-03T04:38:11.964Z,94.90
2018-11-03T04:42:15.281Z,94.60
2018-11-03T04:46:18.620Z,94.70
2018-11-03T04:50:21.964Z,94.90
2018-11-03T04:54:25.316Z,94.80
2018-11-03T04:58:28.659Z,95.00
2018-11-03T05:02:31.983Z,95.00
2018-11-03T05:06:35.317Z,94.90
2018-11-03T05:10:38.664Z,94.90
2018-11-03T05:14:42.005Z,94.90
2018-11-03T05:18:45.348Z,95.10
2018-11-03T05:22:48.671Z,95.30
2018-11-03T05:26:52.028Z,95.20
2018-11-03T05:30:55.398Z,94.70
2018-11-03T05:34:58.765Z,94.80
2018-11-03T05:39:02.201Z,94.70
2018-11-03T05:43:05.974Z,94.70
2018-11-03T05:47:09.346Z,94.90
2018-11-03T05:51:12.757Z,95.00
2018-11-03T05:55:16.116Z,94.80
2018-11-03T05:59:19.459Z,94.70
2018-11-03T06:03:22.772Z,94.90
2018-11-03T06:07:26.416Z,94.80
2018-11-03T06:11:29.780Z,94.70
2018-11-03T06:15:33.225Z,94.80
2018-11-03T06:19:36.480Z,94.80
2018-11-03T06:23:39.892Z,94.80
2018-11-03T06:27:43.204Z,94.80
2018-11-03T06:31:46.640Z,94.70
2018-11-03T06:35:50.608Z,94.80
2018-11-03T06:39:54.036Z,95.00
2018-11-03T06:43:57.401Z,94.90
2018-11-03T06:48:01.861Z,95.00
2018-11-03T06:52:05.548Z,94.90
2018-11-03T06:56:08.962Z,94.70
2018-11-03T07:00:12.332Z,94.90
2018-11-03T07:04:16.036Z,95.40
2018-11-03T07:08:19.384Z,94.80
2018-11-03T07:12:22.947Z,94.80
2018-11-03T07:16:26.101Z,95.40
2018-11-03T07:20:29.436Z,95.10
2018-11-03T07:24:32.775Z,94.60
2018-11-03T07:28:36.880Z,94.70
2018-11-03T07:32:40.244Z,94.80
2018-11-03T07:36:43.638Z,95.30
2018-11-03T07:40:47.815Z,95.50
2018-11-03T07:44:51.232Z,95.10
2018-11-03T07:48:54.764Z,94.80
2018-11-03T07:52:57.919Z,95.50
2018-11-03T07:57:01.316Z,95.30
2018-11-03T08:01:05.084Z,94.90
2018-11-03T08:05:09.569Z,95.20
2018-11-03T08:13:16.017Z,94.50
2018-11-03T08:17:19.466Z,94.90
2018-11-03T08:21:22.826Z,96.00
2018-11-03T08:25:26.151Z,95.70
2018-11-03T08:29:29.522Z,96.30
2018-11-03T08:33:32.944Z,95.30
2018-11-03T08:37:36.437Z,94.60
2018-11-03T08:41:39.871Z,95.90
2018-11-03T08:45:43.201Z,95.10
2018-11-03T08:49:46.539Z,94.80
2018-11-03T08:53:49.879Z,94.90
2018-11-03T08:57:53.303Z,94.20
2018-11-03T09:01:56.940Z,94.70
2018-11-03T09:06:00.259Z,94.20
2018-11-03T09:10:03.916Z,93.60
2018-11-03T09:18:17.032Z,94.40
2018-11-03T09:22:20.392Z,93.70
2018-11-03T09:26:23.712Z,93.70
2018-11-03T09:38:33.401Z,92.30
2018-11-03T09:42:36.820Z,91.70
2018-11-03T09:46:40.142Z,91.20
2018-11-03T09:50:43.538Z,91.60
2018-11-03T09:54:46.837Z,90.90
2018-11-03T09:58:50.179Z,90.90
2018-11-03T10:02:53.531Z,92.20
2018-11-03T10:06:56.863Z,92.20
2018-11-03T10:11:00.232Z,93.40
2018-11-03T10:15:03.601Z,91.50
2018-11-03T10:19:06.939Z,92.30
2018-11-03T10:23:10.341Z,92.70
2018-11-03T10:27:13.616Z,91.70
2018-11-03T10:31:16.960Z,91.20
2018-11-03T10:35:20.293Z,92.60
2018-11-03T10:39:23.664Z,93.10
2018-11-03T10:43:33.464Z,92.90
2018-11-03T10:47:36.828Z,92.80
2018-11-03T10:51:40.203Z,91.50
2018-11-03T10:55:43.631Z,92.00
2018-11-03T10:59:47.003Z,90.80
2018-11-03T11:03:55.822Z,90.40
2018-11-03T11:08:04.449Z,90.20
2018-11-03T11:12:13.051Z,86.60
2018-11-03T11:16:16.460Z,88.20
2018-11-03T11:24:22.999Z,90.60
2018-11-03T11:28:26.235Z,86.70
2018-11-03T11:32:29.584Z,87.50
2018-11-03T11:40:36.220Z,99.90
2018-11-03T11:44:39.557Z,85.20
2018-11-03T11:48:42.889Z,78.80
2018-11-03T11:52:46.227Z,82.30
2018-11-03T11:56:49.566Z,79.30
2018-11-03T12:53:34.353Z,84.20
2018-11-03T12:57:38.173Z,70.10
2018-11-03T13:01:41.575Z,79.40
2018-11-03T13:05:44.898Z,70.60
2018-11-03T13:09:48.333Z,76.20
2018-11-03T13:13:51.664Z,84.40
2018-11-03T13:17:54.993Z,68.50
2018-11-03T13:21:58.324Z,87.90
2018-11-03T13:26:01.653Z,86.70
2018-11-03T13:30:05.219Z,82.50
2018-11-03T13:34:08.539Z,72.00
2018-11-03T13:38:11.912Z,87.20
2018-11-03T13:42:15.251Z,86.10
2018-11-03T13:46:18.579Z,88.40
2018-11-03T13:50:21.911Z,85.00
2018-11-03T13:54:25.227Z,80.20
2018-11-03T13:58:28.565Z,80.20
2018-11-03T14:02:31.905Z,84.30
2018-11-03T14:06:35.244Z,88.90
2018-11-03T14:10:39.406Z,81.30
2018-11-03T14:14:42.723Z,84.20
2018-11-03T14:18:46.054Z,89.30
2018-11-03T14:22:49.391Z,80.60
2018-11-03T14:26:52.833Z,85.80
2018-11-03T14:30:56.161Z,90.40
2018-11-03T14:34:59.472Z,87.20
2018-11-03T14:39:02.890Z,88.80
2018-11-03T14:43:06.250Z,90.10
2018-11-03T14:47:09.576Z,89.90
2018-11-03T14:51:12.921Z,90.90
2018-11-03T14:55:16.231Z,86.50
2018-11-03T14:59:19.572Z,89.70
2018-11-03T15:03:22.898Z,90.50
2018-11-03T15:07:26.383Z,90.00
2018-11-03T15:11:29.882Z,88.70
2018-11-03T15:15:33.199Z,89.00
2018-11-03T15:19:36.676Z,90.10
2018-11-03T15:23:40.004Z,90.00
2018-11-03T15:27:43.636Z,86.90
2018-11-03T15:31:46.959Z,87.80
2018-11-03T15:35:50.320Z,85.80
2018-11-03T15:39:53.680Z,85.90
2018-11-03T15:43:57.032Z,87.00
2018-11-03T15:48:00.372Z,86.90
2018-11-03T15:52:03.716Z,84.70
2018-11-03T15:56:07.060Z,86.50
2018-11-03T16:00:14.444Z,85.30
2018-11-03T16:04:17.789Z,87.50
2018-11-03T16:08:21.134Z,87.10
2018-11-03T16:12:24.531Z,84.60
2018-11-03T16:16:27.851Z,86.30
2018-11-03T16:20:31.220Z,86.40
2018-11-03T16:24:34.592Z,90.00
2018-11-03T16:28:38.376Z,87.30
2018-11-03T16:32:41.842Z,87.90
2018-11-03T16:36:45.068Z,87.90
2018-11-03T16:40:48.407Z,86.40
2018-11-03T16:44:51.776Z,88.30
2018-11-03T16:48:55.158Z,88.90
2018-11-03T16:52:58.481Z,87.00
2018-11-03T16:57:01.820Z,87.90
2018-11-03T17:01:05.200Z,88.80
2018-11-03T17:05:09.818Z,88.80
2018-11-03T17:09:13.171Z,89.30
2018-11-03T17:13:16.496Z,89.10
2018-11-03T17:17:19.896Z,88.50
2018-11-03T17:25:43.224Z,89.50
2018-11-03T17:29:46.592Z,89.80
2018-11-03T17:33:49.908Z,89.50
2018-11-03T17:37:53.336Z,89.80
2018-11-03T17:41:56.655Z,90.10
2018-11-03T17:46:00.088Z,90.10
2018-11-03T17:50:03.557Z,90.20
2018-11-03T17:54:06.894Z,90.80
2018-11-03T17:58:10.224Z,90.60
2018-11-03T18:02:13.620Z,90.00
2018-11-03T18:06:17.081Z,90.50
2018-11-03T18:10:20.385Z,90.00
2018-11-03T18:14:23.757Z,90.30
2018-11-03T18:18:27.204Z,90.50
2018-11-03T18:22:30.528Z,90.40
2018-11-03T18:26:34.049Z,90.40
2018-11-03T18:30:37.402Z,90.40
2018-11-03T18:34:40.955Z,90.50
2018-11-03T18:38:44.964Z,90.60
2018-11-03T18:42:48.351Z,90.50
2018-11-03T18:46:51.685Z,90.50
2018-11-03T18:50:55.000Z,90.70
2018-11-03T18:54:58.335Z,90.70
2018-11-03T18:59:01.666Z,91.00
2018-11-03T19:03:05.102Z,90.90
2018-11-03T19:07:08.613Z,90.90
2018-11-03T19:11:12.237Z,99.90
2018-11-03T19:15:15.563Z,91.60
2018-11-03T19:19:18.887Z,90.80
2018-11-03T19:23:22.236Z,90.80
2018-11-03T19:27:25.567Z,91.00
2018-11-03T19:31:30.077Z,91.00
2018-11-03T19:35:33.982Z,91.00
2018-11-03T19:39:37.372Z,90.90
2018-11-03T19:43:40.880Z,91.00
2018-11-03T19:47:44.790Z,91.00
2018-11-03T19:51:48.298Z,91.00
2018-11-03T19:55:51.633Z,91.00
2018-11-03T19:59:54.958Z,91.10
2018-11-03T20:03:58.281Z,91.00
2018-11-03T20:08:01.604Z,91.20
2018-11-03T20:12:05.370Z,91.30
2018-11-03T20:16:08.740Z,91.10
2018-11-03T20:20:13.124Z,91.10
2018-11-03T20:24:16.464Z,91.10
2018-11-03T20:28:19.808Z,91.10
2018-11-03T20:32:23.136Z,91.20
2018-11-03T20:36:26.462Z,91.20
2018-11-03T20:40:29.823Z,92.60
2018-11-03T20:44:33.171Z,91.30
2018-11-03T20:48:36.519Z,91.20
2018-11-03T20:52:39.848Z,91.20
2018-11-03T20:56:43.170Z,91.40
2018-11-03T21:00:46.496Z,91.40
2018-11-03T21:04:49.839Z,91.40
2018-11-03T21:08:53.160Z,91.30
2018-11-03T21:12:56.591Z,91.20
2018-11-03T21:16:59.928Z,91.20
2018-11-03T21:21:03.264Z,91.40
2018-11-03T21:25:06.640Z,91.30
2018-11-03T21:29:09.987Z,91.40
2018-11-03T21:33:13.484Z,91.40
2018-11-03T21:37:16.720Z,91.40
2018-11-03T21:41:20.115Z,91.20
2018-11-03T21:45:23.448Z,91.20
2018-11-03T21:49:26.789Z,91.30
2018-11-03T21:53:30.118Z,91.30
2018-11-03T21:57:33.599Z,91.30
2018-11-03T22:01:43.308Z,91.20
2018-11-03T22:05:46.663Z,91.30
2018-11-03T22:09:50.081Z,91.30
2018-11-03T22:13:53.401Z,91.40
2018-11-03T22:17:56.736Z,91.50
2018-11-03T22:22:00.211Z,91.50
2018-11-03T22:26:03.568Z,91.50
2018-11-03T22:30:08.561Z,91.60
2018-11-03T22:34:11.982Z,91.70
2018-11-03T22:38:15.344Z,91.70
2018-11-03T22:42:19.332Z,91.70
2018-11-03T22:46:31.676Z,91.70
2018-11-03T22:50:35.063Z,91.60
2018-11-03T22:54:39.089Z,91.80
2018-11-03T22:58:42.468Z,91.70
2018-11-03T23:02:45.792Z,91.60
2018-11-03T23:06:49.144Z,91.80
2018-11-03T23:10:52.468Z,91.80
2018-11-03T23:14:55.780Z,91.90
2018-11-03T23:18:59.109Z,91.90
2018-11-03T23:23:02.465Z,91.90
2018-11-03T23:27:05.952Z,91.80
2018-11-03T23:31:09.308Z,91.80
2018-11-03T23:35:13.780Z,91.70
2018-11-03T23:39:17.132Z,91.90
2018-11-03T23:43:20.494Z,91.90
2018-11-03T23:47:23.841Z,91.80
2018-11-03T23:51:27.184Z,91.80
2018-11-03T23:55:30.500Z,91.90
2018-11-03T23:59:33.923Z,91.80
